Time;durP1;ratioP1;P1;durP2;ratioP2;P2;SDS_P1;SDS_P2;PMS_P1;PMS_P2;Temp;Humidity;BMP_temperature;BMP_pressure;BME280_temperature;BME280_humidity;BME280_pressure;Samples;Min_cycle;Max_cycle;Signal;HPM_P1;HPM_P2
2023/04/20 00:01:20;;;;;;;459.30;224.90;;;;;;;;;;4964312;28;20042;-59
2023/04/20 00:03:45;;;;;;;572.72;246.98;;;;;;;;;;4963600;28;20015;-59
2023/04/20 00:06:11;;;;;;;424.10;219.82;;;;;;;;;;4964049;28;20034;-57
2023/04/20 00:08:36;;;;;;;515.15;239.13;;;;;;;;;;4965188;28;20467;-61
2023/04/20 00:11:01;;;;;;;467.77;223.82;;;;;;;;;;4965843;28;20525;-58
2023/04/20 00:13:26;;;;;;;445.75;240.65;;;;;;;;;;4964479;28;20685;-61
2023/04/20 00:15:52;;;;;;;487.83;231.82;;;;;;;;;;4963859;28;20057;-58
2023/04/20 00:18:17;;;;;;;458.35;232.73;;;;;;;;;;4965092;28;20027;-57
2023/04/20 00:20:42;;;;;;;478.00;227.55;;;;;;;;;;4963135;28;20042;-57
2023/04/20 00:23:07;;;;;;;445.65;227.25;;;;;;;;;;4964447;28;20031;-60
2023/04/20 00:25:33;;;;;;;457.05;241.63;;;;;;;;;;4964074;28;20066;-60
2023/04/20 00:27:58;;;;;;;458.25;236.45;;;;;;;;;;4964692;28;20133;-60
2023/04/20 00:30:23;;;;;;;459.92;224.23;;;;;;;;;;4964747;28;20057;-60
2023/04/20 00:32:49;;;;;;;463.30;232.73;;;;;;;;;;4965514;28;20018;-60
2023/04/20 00:35:14;;;;;;;460.75;234.15;;;;;;;;;;4964320;28;20428;-60
2023/04/20 00:37:39;;;;;;;402.25;210.45;;;;;;;;;;4964730;28;20107;-60
2023/04/20 00:40:07;;;;;;;416.05;201.02;;;;;;;;;;4965526;28;20029;-57
2023/04/20 00:42:33;;;;;;;438.10;212.27;;;;;;;;;;4963660;28;20503;-59
2023/04/20 00:44:58;;;;;;;447.55;217.40;;;;;;;;;;4962669;28;20038;-59
2023/04/20 00:47:24;;;;;;;445.05;212.32;;;;;;;;;;4963066;28;20035;-59
2023/04/20 00:49:50;;;;;;;442.02;210.45;;;;;;;;;;4964511;28;20034;-58
2023/04/20 00:52:15;;;;;;;406.08;209.02;;;;;;;;;;4963605;28;20046;-59
2023/04/20 00:54:41;;;;;;;457.42;220.93;;;;;;;;;;4962172;28;20021;-59
2023/04/20 00:57:06;;;;;;;419.55;206.73;;;;;;;;;;4964873;28;20127;-58
2023/04/20 00:59:31;;;;;;;449.23;219.80;;;;;;;;;;4963515;28;20027;-57
2023/04/20 01:01:57;;;;;;;416.42;205.25;;;;;;;;;;4962116;28;20034;-60
2023/04/20 01:04:22;;;;;;;441.13;213.43;;;;;;;;;;4964484;28;20515;-57
2023/04/20 01:06:47;;;;;;;461.65;215.25;;;;;;;;;;4964426;28;20134;-58
2023/04/20 01:09:13;;;;;;;430.42;214.70;;;;;;;;;;4967102;28;20027;-58
2023/04/20 01:11:38;;;;;;;421.25;225.98;;;;;;;;;;4964358;28;20035;-59
2023/04/20 01:14:03;;;;;;;485.90;220.02;;;;;;;;;;4963987;28;20545;-57
2023/04/20 01:16:29;;;;;;;413.88;214.63;;;;;;;;;;4964899;28;20132;-59
2023/04/20 01:18:55;;;;;;;469.27;222.43;;;;;;;;;;4964337;28;20050;-58
2023/04/20 01:21:21;;;;;;;432.65;212.70;;;;;;;;;;4963113;28;20062;-59
2023/04/20 01:23:46;;;;;;;510.42;207.10;;;;;;;;;;4961973;28;20125;-60
2023/04/20 01:26:13;;;;;;;424.90;210.23;;;;;;;;;;4965431;28;20044;-58
2023/04/20 01:28:39;;;;;;;434.73;217.80;;;;;;;;;;4966410;28;20061;-57
2023/04/20 01:31:05;;;;;;;441.38;207.45;;;;;;;;;;4967306;28;20439;-58
2023/04/20 01:33:31;;;;;;;495.65;202.05;;;;;;;;;;4965932;28;20143;-59
2023/04/20 01:35:56;;;;;;;439.52;206.60;;;;;;;;;;4966883;28;20526;-59
2023/04/20 01:38:22;;;;;;;450.58;216.25;;;;;;;;;;4967616;28;20110;-59
2023/04/20 01:40:47;;;;;;;405.40;207.10;;;;;;;;;;4968654;28;20616;-58
2023/04/20 01:43:13;;;;;;;423.27;217.38;;;;;;;;;;4967514;28;20022;-56
2023/04/20 01:45:38;;;;;;;470.70;224.38;;;;;;;;;;4965994;28;20046;-59
2023/04/20 01:48:03;;;;;;;422.08;209.32;;;;;;;;;;4967641;28;20023;-57
2023/04/20 01:50:29;;;;;;;460.95;215.70;;;;;;;;;;4968794;28;20045;-56
2023/04/20 01:52:54;;;;;;;476.23;214.18;;;;;;;;;;4966398;28;20105;-56
2023/04/20 01:55:19;;;;;;;496.40;220.10;;;;;;;;;;4966646;28;20033;-56
2023/04/20 01:57:44;;;;;;;472.73;209.63;;;;;;;;;;4967289;28;20058;-58
2023/04/20 02:00:10;;;;;;;421.40;219.52;;;;;;;;;;4967132;28;20023;-57
2023/04/20 02:02:36;;;;;;;429.75;214.70;;;;;;;;;;4968339;28;20038;-57
2023/04/20 02:05:01;;;;;;;462.35;209.35;;;;;;;;;;4968559;28;20629;-57
2023/04/20 02:07:26;;;;;;;447.35;221.13;;;;;;;;;;4967481;28;20031;-59
2023/04/20 02:09:51;;;;;;;427.63;204.23;;;;;;;;;;4966806;28;20097;-57
2023/04/20 02:12:17;;;;;;;431.98;197.05;;;;;;;;;;4966816;28;20031;-57
2023/04/20 02:14:42;;;;;;;413.13;202.38;;;;;;;;;;4966109;28;20106;-57
2023/04/20 02:17:08;;;;;;;417.85;206.88;;;;;;;;;;4966305;28;20046;-59
2023/04/20 02:19:33;;;;;;;445.75;210.50;;;;;;;;;;4968689;28;20026;-57
2023/04/20 02:21:58;;;;;;;457.77;219.15;;;;;;;;;;4965437;28;20135;-55
2023/04/20 02:24:23;;;;;;;468.55;226.45;;;;;;;;;;4966465;28;20030;-57
2023/04/20 02:26:49;;;;;;;458.20;233.65;;;;;;;;;;4968014;28;20029;-56
2023/04/20 02:29:14;;;;;;;425.38;224.75;;;;;;;;;;4967068;28;20522;-58
2023/04/20 02:31:40;;;;;;;445.40;193.10;;;;;;;;;;4964952;28;20503;-56
2023/04/20 02:34:08;;;;;;;439.23;208.70;;;;;;;;;;4967624;28;20042;-58
2023/04/20 02:36:33;;;;;;;429.60;217.82;;;;;;;;;;4964455;28;20034;-58
2023/04/20 02:38:58;;;;;;;424.92;197.20;;;;;;;;;;4967862;28;20087;-59
2023/04/20 02:41:23;;;;;;;426.95;184.98;;;;;;;;;;4967379;28;20034;-58
2023/04/20 02:43:49;;;;;;;517.55;197.73;;;;;;;;;;4966670;28;20038;-58
2023/04/20 02:46:14;;;;;;;412.40;200.50;;;;;;;;;;4965219;28;20032;-58
2023/04/20 02:48:40;;;;;;;399.27;200.70;;;;;;;;;;4967969;28;20090;-58
2023/04/20 02:51:05;;;;;;;455.90;216.45;;;;;;;;;;4965758;28;20062;-59
2023/04/20 02:53:31;;;;;;;500.13;212.02;;;;;;;;;;4963091;28;20087;-59
2023/04/20 02:55:56;;;;;;;444.70;217.23;;;;;;;;;;4965365;28;20709;-58
2023/04/20 02:58:21;;;;;;;449.98;218.13;;;;;;;;;;4965772;28;20023;-59
2023/04/20 03:00:46;;;;;;;401.42;188.07;;;;;;;;;;4966370;28;20034;-58
2023/04/20 03:03:12;;;;;;;427.90;211.13;;;;;;;;;;4964493;28;20058;-59
2023/04/20 03:05:37;;;;;;;407.67;201.68;;;;;;;;;;4963585;28;20035;-58
2023/04/20 03:08:04;;;;;;;423.83;216.07;;;;;;;;;;4965519;28;21110;-58
2023/04/20 03:10:30;;;;;;;456.08;209.38;;;;;;;;;;4963294;28;20039;-59
2023/04/20 03:12:55;;;;;;;412.60;191.25;;;;;;;;;;4966002;28;20029;-56
2023/04/20 03:15:21;;;;;;;431.92;201.18;;;;;;;;;;4964055;28;20019;-56
2023/04/20 03:17:46;;;;;;;439.02;207.45;;;;;;;;;;4966811;28;20510;-56
2023/04/20 03:20:12;;;;;;;450.55;234.00;;;;;;;;;;4965560;28;20022;-56
2023/04/20 03:22:37;;;;;;;469.63;234.25;;;;;;;;;;4966177;28;20030;-58
2023/04/20 03:25:02;;;;;;;405.02;224.75;;;;;;;;;;4964404;28;20084;-57
2023/04/20 03:27:28;;;;;;;432.88;213.80;;;;;;;;;;4964684;28;20500;-56
2023/04/20 03:29:53;;;;;;;478.52;215.30;;;;;;;;;;4964362;28;20034;-56
2023/04/20 03:32:18;;;;;;;442.05;219.35;;;;;;;;;;4965584;28;20114;-57
2023/04/20 03:34:43;;;;;;;428.65;215.90;;;;;;;;;;4964833;28;20091;-57
2023/04/20 03:37:08;;;;;;;440.80;216.02;;;;;;;;;;4966115;28;20133;-57
2023/04/20 03:39:34;;;;;;;397.25;213.35;;;;;;;;;;4964308;28;20093;-57
2023/04/20 03:41:59;;;;;;;494.73;227.02;;;;;;;;;;4965412;28;20118;-59
2023/04/20 03:44:24;;;;;;;433.40;207.07;;;;;;;;;;4964437;28;20033;-59
2023/04/20 03:46:49;;;;;;;431.15;206.68;;;;;;;;;;4966443;28;20395;-57
2023/04/20 03:49:15;;;;;;;450.85;227.45;;;;;;;;;;4965334;28;20075;-58
2023/04/20 03:51:40;;;;;;;399.77;219.63;;;;;;;;;;4965686;28;20772;-58
2023/04/20 03:54:05;;;;;;;447.30;224.75;;;;;;;;;;4963961;28;20026;-57
2023/04/20 03:56:31;;;;;;;474.23;224.32;;;;;;;;;;4965639;28;20031;-59
2023/04/20 03:58:56;;;;;;;456.13;230.40;;;;;;;;;;4964725;28;20522;-59
2023/04/20 04:01:21;;;;;;;412.15;223.18;;;;;;;;;;4964722;28;20129;-57
2023/04/20 04:03:46;;;;;;;531.40;229.13;;;;;;;;;;4965347;28;20019;-56
2023/04/20 04:06:12;;;;;;;425.10;232.45;;;;;;;;;;4964431;28;20034;-56
2023/04/20 04:08:37;;;;;;;447.50;231.55;;;;;;;;;;4965132;28;20080;-56
2023/04/20 04:11:02;;;;;;;428.85;219.10;;;;;;;;;;4963845;28;20065;-55
2023/04/20 04:13:27;;;;;;;462.67;229.13;;;;;;;;;;4964940;28;20392;-57
2023/04/20 04:15:53;;;;;;;445.38;220.52;;;;;;;;;;4964021;28;20285;-59
2023/04/20 04:18:19;;;;;;;437.92;219.48;;;;;;;;;;4966017;28;20096;-59
2023/04/20 04:20:45;;;;;;;423.40;220.63;;;;;;;;;;4964986;28;20661;-59
2023/04/20 04:23:10;;;;;;;422.92;210.77;;;;;;;;;;4966815;28;20019;-56
2023/04/20 04:25:39;;;;;;;431.73;231.45;;;;;;;;;;4963350;28;20408;-57
2023/04/20 04:28:04;;;;;;;450.80;222.93;;;;;;;;;;4964778;28;20361;-58
2023/04/20 04:30:30;;;;;;;434.10;216.52;;;;;;;;;;4964365;28;20522;-57
2023/04/20 04:32:55;;;;;;;442.65;222.57;;;;;;;;;;4966966;28;20396;-58
2023/04/20 04:35:20;;;;;;;472.05;232.07;;;;;;;;;;4963238;28;20026;-57
2023/04/20 04:37:46;;;;;;;437.48;230.38;;;;;;;;;;4965083;28;20022;-56
2023/04/20 04:40:11;;;;;;;413.48;220.60;;;;;;;;;;4965641;28;20262;-56
2023/04/20 04:42:37;;;;;;;424.95;211.15;;;;;;;;;;4963937;28;20030;-56
2023/04/20 04:45:03;;;;;;;444.45;229.32;;;;;;;;;;4963750;28;20113;-56
2023/04/20 04:47:29;;;;;;;463.13;226.65;;;;;;;;;;4963959;28;20462;-56
2023/04/20 04:49:54;;;;;;;406.83;224.27;;;;;;;;;;4964955;28;20744;-57
2023/04/20 04:52:20;;;;;;;439.52;233.75;;;;;;;;;;4963526;28;20137;-56
2023/04/20 04:54:45;;;;;;;459.33;228.73;;;;;;;;;;4964931;28;20022;-56
2023/04/20 04:57:11;;;;;;;442.50;235.52;;;;;;;;;;4965171;28;20061;-56
2023/04/20 04:59:36;;;;;;;455.95;229.70;;;;;;;;;;4963840;28;20030;-58
2023/04/20 05:02:01;;;;;;;409.38;214.05;;;;;;;;;;4963755;28;20038;-56
2023/04/20 05:04:26;;;;;;;468.98;228.85;;;;;;;;;;4962891;28;20019;-56
2023/04/20 05:06:52;;;;;;;493.83;228.27;;;;;;;;;;4964261;28;20038;-56
2023/04/20 05:09:17;;;;;;;449.80;234.07;;;;;;;;;;4964120;28;20015;-59
2023/04/20 05:11:42;;;;;;;434.20;216.77;;;;;;;;;;4966331;28;20039;-58
2023/04/20 05:14:07;;;;;;;479.77;198.20;;;;;;;;;;4963773;28;20023;-58
2023/04/20 05:16:33;;;;;;;462.80;209.50;;;;;;;;;;4963802;28;20043;-58
2023/04/20 05:18:58;;;;;;;467.20;203.80;;;;;;;;;;4963035;28;20260;-58
2023/04/20 05:21:23;;;;;;;480.85;205.30;;;;;;;;;;4963720;28;20270;-58
2023/04/20 05:23:48;;;;;;;583.17;219.10;;;;;;;;;;4963143;28;20549;-58
2023/04/20 05:26:14;;;;;;;450.63;206.27;;;;;;;;;;4963551;28;20038;-57
2023/04/20 05:28:39;;;;;;;454.77;190.90;;;;;;;;;;4963617;28;20027;-58
2023/04/20 05:31:06;;;;;;;420.33;177.85;;;;;;;;;;4964064;28;20038;-59
2023/04/20 05:33:32;;;;;;;548.05;194.68;;;;;;;;;;4962988;28;20990;-59
2023/04/20 05:35:57;;;;;;;461.80;186.63;;;;;;;;;;4962976;28;20039;-60
2023/04/20 05:38:23;;;;;;;468.38;193.75;;;;;;;;;;4962413;28;20018;-60
2023/04/20 05:40:49;;;;;;;481.95;193.68;;;;;;;;;;4965396;28;20035;-59
2023/04/20 05:43:16;;;;;;;490.98;203.43;;;;;;;;;;4964780;28;20023;-57
2023/04/20 05:45:41;;;;;;;524.88;213.27;;;;;;;;;;4962899;28;20836;-58
2023/04/20 05:48:07;;;;;;;513.20;209.03;;;;;;;;;;4966655;28;20027;-57
2023/04/20 05:50:32;;;;;;;502.13;193.20;;;;;;;;;;4963046;28;20265;-58
2023/04/20 05:52:57;;;;;;;531.80;184.20;;;;;;;;;;4964327;28;21170;-59
2023/04/20 05:55:22;;;;;;;488.55;189.45;;;;;;;;;;4961984;28;20023;-59
2023/04/20 05:57:48;;;;;;;515.40;198.50;;;;;;;;;;4964187;28;20571;-60
2023/04/20 06:00:14;;;;;;;491.35;181.48;;;;;;;;;;4963192;28;20596;-60
2023/04/20 06:02:40;;;;;;;496.15;184.30;;;;;;;;;;4963552;28;20556;-61
2023/04/20 06:05:05;;;;;;;520.78;188.10;;;;;;;;;;4963605;28;20030;-60
2023/04/20 06:07:30;;;;;;;531.75;199.02;;;;;;;;;;4961778;28;20031;-59
2023/04/20 06:09:56;;;;;;;470.87;172.67;;;;;;;;;;4963946;28;20084;-57
2023/04/20 06:12:21;;;;;;;521.78;183.35;;;;;;;;;;4964517;28;20269;-58
2023/04/20 06:14:46;;;;;;;539.78;196.60;;;;;;;;;;4965982;28;20022;-59
2023/04/20 06:17:12;;;;;;;498.07;183.63;;;;;;;;;;4966104;28;20045;-60
2023/04/20 06:19:37;;;;;;;496.90;164.77;;;;;;;;;;4966729;28;20266;-58
2023/04/20 06:22:06;;;;;;;501.95;183.63;;;;;;;;;;4965973;28;20266;-59
2023/04/20 06:24:32;;;;;;;520.60;176.50;;;;;;;;;;4966943;28;20033;-60
2023/04/20 06:26:57;;;;;;;457.60;158.60;;;;;;;;;;4967451;28;20234;-60
2023/04/20 06:29:23;;;;;;;491.20;178.13;;;;;;;;;;4967647;28;20026;-60
2023/04/20 06:31:48;;;;;;;501.25;170.60;;;;;;;;;;4967812;28;20039;-60
2023/04/20 06:34:13;;;;;;;488.00;172.95;;;;;;;;;;4964451;28;20805;-60
2023/04/20 06:36:41;;;;;;;460.10;165.45;;;;;;;;;;4967420;28;20058;-60
2023/04/20 06:39:06;;;;;;;480.15;171.38;;;;;;;;;;4966867;28;20939;-60
2023/04/20 06:41:31;;;;;;;503.05;175.85;;;;;;;;;;4965832;28;20038;-59
2023/04/20 06:43:57;;;;;;;501.23;159.93;;;;;;;;;;4965713;28;20029;-59
2023/04/20 06:46:22;;;;;;;501.27;176.95;;;;;;;;;;4974623;28;20288;-59
2023/04/20 06:48:47;;;;;;;490.50;169.43;;;;;;;;;;4965655;28;20027;-59
2023/04/20 06:51:13;;;;;;;494.87;165.17;;;;;;;;;;4964068;28;20282;-59
2023/04/20 06:53:38;;;;;;;517.33;161.30;;;;;;;;;;4964896;28;20262;-60
2023/04/20 06:56:03;;;;;;;480.95;173.77;;;;;;;;;;4965970;28;20034;-59
2023/04/20 06:58:28;;;;;;;483.85;159.52;;;;;;;;;;4965684;28;20026;-58
2023/04/20 07:00:54;;;;;;;468.53;159.90;;;;;;;;;;4966481;28;20804;-59
2023/04/20 07:03:19;;;;;;;500.40;165.03;;;;;;;;;;4968027;28;20941;-59
2023/04/20 07:05:44;;;;;;;511.83;172.35;;;;;;;;;;4963740;28;20263;-57
2023/04/20 07:08:10;;;;;;;492.73;166.40;;;;;;;;;;4967489;28;20099;-57
2023/04/20 07:10:35;;;;;;;473.33;153.90;;;;;;;;;;4966549;28;20030;-58
2023/04/20 07:13:00;;;;;;;480.90;161.97;;;;;;;;;;4965473;28;20030;-61
2023/04/20 07:15:25;;;;;;;512.90;158.93;;;;;;;;;;4965093;28;20274;-58
2023/04/20 07:17:51;;;;;;;502.13;153.87;;;;;;;;;;4965318;28;20788;-63
2023/04/20 07:20:16;;;;;;;507.47;172.40;;;;;;;;;;4966930;28;20766;-58
2023/04/20 07:22:41;;;;;;;513.20;169.30;;;;;;;;;;4964842;28;20374;-59
2023/04/20 07:25:08;;;;;;;483.17;176.45;;;;;;;;;;4963452;28;20266;-59
2023/04/20 07:27:34;;;;;;;519.50;176.73;;;;;;;;;;4964879;28;20039;-57
2023/04/20 07:29:59;;;;;;;501.30;152.82;;;;;;;;;;4967570;28;20035;-59
2023/04/20 07:32:25;;;;;;;459.25;156.75;;;;;;;;;;4966967;28;20065;-59
2023/04/20 07:34:50;;;;;;;502.90;156.95;;;;;;;;;;4964780;28;20030;-57
2023/04/20 07:37:15;;;;;;;501.93;156.83;;;;;;;;;;4965254;28;20035;-58
2023/04/20 07:39:40;;;;;;;492.30;151.68;;;;;;;;;;4965083;28;20284;-58
2023/04/20 07:42:06;;;;;;;485.45;160.00;;;;;;;;;;4964905;28;20073;-59
2023/04/20 07:44:31;;;;;;;493.52;152.70;;;;;;;;;;4963182;28;20015;-57
2023/04/20 07:46:56;;;;;;;494.88;156.23;;;;;;;;;;4966287;28;20050;-59
2023/04/20 07:49:22;;;;;;;536.80;165.10;;;;;;;;;;4965190;28;20026;-57
2023/04/20 07:51:47;;;;;;;496.00;162.77;;;;;;;;;;4964010;28;20043;-58
2023/04/20 07:54:12;;;;;;;508.90;166.33;;;;;;;;;;4964405;28;20029;-58
2023/04/20 07:56:38;;;;;;;503.13;166.67;;;;;;;;;;4964849;28;20280;-57
2023/04/20 07:59:03;;;;;;;482.40;162.03;;;;;;;;;;4965495;28;20254;-57
2023/04/20 08:01:28;;;;;;;498.43;151.33;;;;;;;;;;4963451;28;20281;-60
2023/04/20 08:03:54;;;;;;;619.63;176.93;;;;;;;;;;4964068;28;20296;-57
2023/04/20 08:06:20;;;;;;;516.30;175.93;;;;;;;;;;4963924;28;20415;-60
2023/04/20 08:08:45;;;;;;;486.50;165.73;;;;;;;;;;4968335;28;20446;-58
2023/04/20 08:11:11;;;;;;;496.50;177.60;;;;;;;;;;4965510;28;20072;-58
2023/04/20 08:13:36;;;;;;;505.00;167.80;;;;;;;;;;4963753;28;20057;-57
2023/04/20 08:16:02;;;;;;;514.13;175.35;;;;;;;;;;4963905;28;20026;-59
2023/04/20 08:18:29;;;;;;;535.13;184.57;;;;;;;;;;4964497;28;20045;-61
2023/04/20 08:20:54;;;;;;;531.40;172.70;;;;;;;;;;4966079;28;20023;-58
2023/04/20 08:23:26;;;;;;;551.47;189.27;;;;;;;;;;4963359;28;20389;-57
2023/04/20 08:25:51;;;;;;;538.75;181.90;;;;;;;;;;4964430;28;20568;-57
2023/04/20 08:28:16;;;;;;;509.35;170.13;;;;;;;;;;4963981;28;20042;-58
2023/04/20 08:30:42;;;;;;;558.87;178.90;;;;;;;;;;4965342;28;20027;-60
2023/04/20 08:33:07;;;;;;;518.33;176.25;;;;;;;;;;4965652;28;20258;-59
2023/04/20 08:35:32;;;;;;;523.33;182.63;;;;;;;;;;4961448;28;20617;-59
2023/04/20 08:37:57;;;;;;;561.10;189.30;;;;;;;;;;4965146;28;20397;-60
2023/04/20 08:40:23;;;;;;;553.17;185.87;;;;;;;;;;4965159;28;20057;-59
2023/04/20 08:42:49;;;;;;;543.38;182.68;;;;;;;;;;4965912;28;20287;-60
2023/04/20 08:45:14;;;;;;;500.88;181.15;;;;;;;;;;4962074;28;20037;-57
2023/04/20 08:47:40;;;;;;;533.65;190.82;;;;;;;;;;4964710;28;20076;-57
2023/04/20 08:50:06;;;;;;;548.42;181.50;;;;;;;;;;4964937;28;20026;-59
2023/04/20 08:52:32;;;;;;;701.45;188.73;;;;;;;;;;4961025;28;20030;-58
2023/04/20 08:54:58;;;;;;;486.02;181.15;;;;;;;;;;4961257;28;20050;-60
2023/04/20 08:57:24;;;;;;;505.27;182.67;;;;;;;;;;4963180;28;20460;-59
2023/04/20 08:59:50;;;;;;;532.42;193.48;;;;;;;;;;4964869;28;20258;-58
2023/04/20 09:02:15;;;;;;;519.00;198.48;;;;;;;;;;4964186;28;20058;-58
2023/04/20 09:04:41;;;;;;;576.33;201.95;;;;;;;;;;4961904;28;20570;-59
2023/04/20 09:07:15;;;;;;;514.10;188.60;;;;;;;;;;4964182;28;20145;-60
2023/04/20 09:09:52;;;;;;;546.58;205.65;;;;;;;;;;4964842;28;20972;-60
2023/04/20 09:12:17;;;;;;;526.58;216.30;;;;;;;;;;4963622;28;20050;-58
2023/04/20 09:14:43;;;;;;;544.97;197.15;;;;;;;;;;4963126;28;20038;-57
2023/04/20 09:17:12;;;;;;;525.22;199.88;;;;;;;;;;4964280;28;20512;-57
2023/04/20 09:19:38;;;;;;;544.17;211.98;;;;;;;;;;4964199;28;20015;-58
2023/04/20 09:22:05;;;;;;;523.80;205.07;;;;;;;;;;4964869;28;20041;-60
2023/04/20 09:24:31;;;;;;;539.13;208.57;;;;;;;;;;4962656;28;20023;-58
2023/04/20 09:26:57;;;;;;;539.83;202.50;;;;;;;;;;4961931;28;20034;-58
2023/04/20 09:29:24;;;;;;;554.28;209.23;;;;;;;;;;4963737;28;20018;-57
2023/04/20 09:31:50;;;;;;;527.28;214.73;;;;;;;;;;4962891;28;20031;-59
2023/04/20 09:34:15;;;;;;;494.27;193.10;;;;;;;;;;4962392;28;20035;-58
2023/04/20 09:36:49;;;;;;;532.13;201.93;;;;;;;;;;4963670;28;20043;-60
2023/04/20 09:39:18;;;;;;;506.52;186.13;;;;;;;;;;4964037;28;20018;-60
2023/04/20 09:41:43;;;;;;;517.00;196.95;;;;;;;;;;4962258;28;20043;-58
2023/04/20 09:44:10;;;;;;;487.92;188.30;;;;;;;;;;4961586;28;20034;-59
2023/04/20 09:46:37;;;;;;;525.38;193.98;;;;;;;;;;4965276;28;20037;-59
2023/04/20 09:49:03;;;;;;;489.83;188.30;;;;;;;;;;4967105;28;20034;-59
2023/04/20 09:51:28;;;;;;;507.70;171.85;;;;;;;;;;4966505;28;20949;-57
2023/04/20 09:53:58;;;;;;;584.30;184.20;;;;;;;;;;4966166;28;20043;-59
2023/04/20 09:56:24;;;;;;;495.67;185.88;;;;;;;;;;4965489;28;20034;-59
2023/04/20 09:58:50;;;;;;;522.58;197.63;;;;;;;;;;4966656;28;20532;-59
2023/04/20 10:01:15;;;;;;;499.60;187.82;;;;;;;;;;4967091;28;20047;-60
2023/04/20 10:03:41;;;;;;;568.35;182.43;;;;;;;;;;4966929;28;20035;-57
2023/04/20 10:06:17;;;;;;;489.10;171.13;;;;;;;;;;4964649;28;20035;-60
2023/04/20 10:08:42;;;;;;;496.73;174.15;;;;;;;;;;4966808;28;20030;-58
2023/04/20 10:11:07;;;;;;;523.65;176.52;;;;;;;;;;4976256;28;20070;-57
2023/04/20 10:13:33;;;;;;;545.60;178.55;;;;;;;;;;4966731;28;20088;-59
2023/04/20 10:15:58;;;;;;;521.13;188.07;;;;;;;;;;4965795;28;20050;-58
2023/04/20 10:18:23;;;;;;;533.13;186.00;;;;;;;;;;4967147;28;20494;-58
2023/04/20 10:20:49;;;;;;;504.00;190.98;;;;;;;;;;4965760;28;20153;-59
2023/04/20 10:23:15;;;;;;;535.60;199.05;;;;;;;;;;4965708;28;20054;-58
2023/04/20 10:25:41;;;;;;;532.20;195.52;;;;;;;;;;4966359;28;20695;-59
2023/04/20 10:28:09;;;;;;;466.48;172.32;;;;;;;;;;4968508;28;20045;-60
2023/04/20 10:30:35;;;;;;;561.75;187.27;;;;;;;;;;4965153;28;20030;-59
2023/04/20 10:33:08;;;;;;;502.50;182.00;;;;;;;;;;4967216;28;20476;-59
2023/04/20 10:35:49;;;;;;;555.40;179.30;;;;;;;;;;4963029;28;20175;-59
2023/04/20 10:38:15;;;;;;;498.25;176.48;;;;;;;;;;4964533;28;20035;-59
2023/04/20 10:40:40;;;;;;;531.42;185.77;;;;;;;;;;4965741;28;20267;-57
2023/04/20 10:43:20;;;;;;;519.15;198.85;;;;;;;;;;4967510;28;20142;-56
2023/04/20 10:45:45;;;;;;;548.83;195.18;;;;;;;;;;4965777;28;20038;-57
2023/04/20 10:48:10;;;;;;;535.45;205.00;;;;;;;;;;4966567;28;20022;-57
2023/04/20 10:50:36;;;;;;;540.08;191.40;;;;;;;;;;4965857;28;20030;-61
2023/04/20 10:53:02;;;;;;;532.90;211.32;;;;;;;;;;4968000;28;20107;-59
2023/04/20 10:55:27;;;;;;;533.65;214.07;;;;;;;;;;4965596;28;21512;-57
2023/04/20 10:57:52;;;;;;;529.10;208.40;;;;;;;;;;4965728;28;20467;-59
2023/04/20 11:00:19;;;;;;;517.50;200.52;;;;;;;;;;4966600;28;20062;-58
2023/04/20 11:02:49;;;;;;;492.67;194.05;;;;;;;;;;4965649;28;20062;-58
2023/04/20 11:05:14;;;;;;;531.78;201.65;;;;;;;;;;4963726;28;20019;-61
2023/04/20 11:07:46;;;;;;;528.22;205.07;;;;;;;;;;4965567;28;20023;-60
2023/04/20 11:10:12;;;;;;;539.10;187.25;;;;;;;;;;4964606;28;20030;-58
2023/04/20 11:12:38;;;;;;;495.15;190.18;;;;;;;;;;4965033;28;20030;-57
2023/04/20 11:15:03;;;;;;;530.42;188.10;;;;;;;;;;4965028;28;20023;-60
2023/04/20 11:17:32;;;;;;;548.75;198.75;;;;;;;;;;4965224;28;20031;-60
2023/04/20 11:20:09;;;;;;;501.55;195.73;;;;;;;;;;4966680;28;20538;-60
2023/04/20 11:22:35;;;;;;;568.83;191.38;;;;;;;;;;4966007;28;20150;-58
2023/04/20 11:25:04;;;;;;;509.90;188.75;;;;;;;;;;4964875;28;20019;-56
2023/04/20 11:27:29;;;;;;;534.60;184.77;;;;;;;;;;4966050;28;20122;-57
2023/04/20 11:29:58;;;;;;;490.70;178.07;;;;;;;;;;4974126;28;20150;-60
2023/04/20 11:32:24;;;;;;;520.05;179.82;;;;;;;;;;4964963;28;20031;-59
2023/04/20 11:34:57;;;;;;;550.47;192.27;;;;;;;;;;4962928;28;20019;-58
2023/04/20 11:37:22;;;;;;;502.58;184.45;;;;;;;;;;4964771;28;20039;-57
2023/04/20 11:39:57;;;;;;;516.77;198.17;;;;;;;;;;4968314;28;20129;-58
2023/04/20 11:42:22;;;;;;;501.10;186.80;;;;;;;;;;4965011;28;20265;-58
2023/04/20 11:44:47;;;;;;;499.67;164.37;;;;;;;;;;4964157;28;20033;-58
2023/04/20 11:47:13;;;;;;;494.00;175.75;;;;;;;;;;4965428;28;20259;-57
2023/04/20 11:49:39;;;;;;;471.00;169.65;;;;;;;;;;4965776;28;20034;-60
2023/04/20 11:52:04;;;;;;;513.30;181.40;;;;;;;;;;4965783;28;20043;-59
2023/04/20 11:54:32;;;;;;;471.38;168.65;;;;;;;;;;4963925;28;20026;-59
2023/04/20 11:56:58;;;;;;;498.10;180.02;;;;;;;;;;4966599;28;20589;-60
2023/04/20 11:59:24;;;;;;;465.67;162.15;;;;;;;;;;4964635;28;20587;-58
2023/04/20 12:01:49;;;;;;;467.83;166.95;;;;;;;;;;4964300;28;20413;-60
2023/04/20 12:04:14;;;;;;;486.30;167.07;;;;;;;;;;4962118;28;20443;-61
2023/04/20 12:06:40;;;;;;;481.98;176.07;;;;;;;;;;4963920;28;20413;-58
2023/04/20 12:09:05;;;;;;;506.05;185.55;;;;;;;;;;4962011;28;20065;-60
2023/04/20 12:11:31;;;;;;;550.53;185.93;;;;;;;;;;4964428;28;20312;-59
2023/04/20 12:13:56;;;;;;;491.27;187.52;;;;;;;;;;4963105;28;20077;-59
2023/04/20 12:16:22;;;;;;;487.05;199.75;;;;;;;;;;4964468;28;20695;-59
2023/04/20 12:18:47;;;;;;;497.73;191.73;;;;;;;;;;4965202;28;20065;-58
2023/04/20 12:21:13;;;;;;;489.67;172.75;;;;;;;;;;4964459;28;20030;-58
2023/04/20 12:23:38;;;;;;;575.40;189.30;;;;;;;;;;4964579;28;20034;-60
2023/04/20 12:26:04;;;;;;;510.23;190.55;;;;;;;;;;4962229;28;20027;-59
2023/04/20 12:28:32;;;;;;;511.13;195.43;;;;;;;;;;4963289;28;20054;-59
2023/04/20 12:30:57;;;;;;;545.08;190.00;;;;;;;;;;4964837;28;20707;-59
2023/04/20 12:33:23;;;;;;;483.02;163.07;;;;;;;;;;4963080;28;20605;-59
2023/04/20 12:35:48;;;;;;;493.85;185.80;;;;;;;;;;4961147;28;20068;-57
2023/04/20 12:38:13;;;;;;;445.27;173.25;;;;;;;;;;4965332;28;20059;-58
2023/04/20 12:40:39;;;;;;;463.05;167.63;;;;;;;;;;4963286;28;20038;-57
2023/04/20 12:43:04;;;;;;;529.65;179.88;;;;;;;;;;4963099;28;20683;-59
2023/04/20 12:45:29;;;;;;;520.80;196.23;;;;;;;;;;4961723;28;20387;-58
2023/04/20 12:47:55;;;;;;;498.60;180.40;;;;;;;;;;4964791;28;20034;-64
2023/04/20 12:50:20;;;;;;;487.85;178.00;;;;;;;;;;4964590;28;20026;-57
2023/04/20 12:52:45;;;;;;;481.48;184.25;;;;;;;;;;4965656;28;20038;-59
2023/04/20 12:55:11;;;;;;;525.63;197.80;;;;;;;;;;4963533;28;20049;-61
2023/04/20 12:57:37;;;;;;;531.65;196.45;;;;;;;;;;4965837;28;20067;-56
2023/04/20 13:00:03;;;;;;;515.47;184.63;;;;;;;;;;4961979;28;20022;-59
2023/04/20 13:02:28;;;;;;;502.40;185.45;;;;;;;;;;4960859;28;20049;-56
2023/04/20 13:04:54;;;;;;;511.30;192.70;;;;;;;;;;4962226;28;20023;-57
2023/04/20 13:07:19;;;;;;;484.20;193.07;;;;;;;;;;4963737;28;20038;-57
2023/04/20 13:09:44;;;;;;;528.30;204.63;;;;;;;;;;4963833;28;20273;-57
2023/04/20 13:12:10;;;;;;;476.70;191.20;;;;;;;;;;4964324;28;20282;-56
2023/04/20 13:14:35;;;;;;;521.45;193.05;;;;;;;;;;4963781;28;20617;-59
2023/04/20 13:17:00;;;;;;;546.77;205.57;;;;;;;;;;4962563;28;20124;-57
2023/04/20 13:19:29;;;;;;;520.63;213.93;;;;;;;;;;4963514;28;20269;-58
2023/04/20 13:21:54;;;;;;;546.50;211.05;;;;;;;;;;4964336;28;20031;-59
2023/04/20 13:24:20;;;;;;;530.38;220.32;;;;;;;;;;4965346;28;20084;-58
2023/04/20 13:26:45;;;;;;;523.73;209.77;;;;;;;;;;4967627;28;20027;-58
2023/04/20 13:29:10;;;;;;;550.42;217.27;;;;;;;;;;4965868;28;20259;-59
2023/04/20 13:31:36;;;;;;;555.38;218.20;;;;;;;;;;4966086;28;20041;-57
2023/04/20 13:34:01;;;;;;;526.28;214.70;;;;;;;;;;4965449;28;20186;-59
2023/04/20 13:36:27;;;;;;;518.70;209.63;;;;;;;;;;4965325;28;20038;-58
2023/04/20 13:38:52;;;;;;;552.15;214.95;;;;;;;;;;4968104;28;20084;-56
2023/04/20 13:41:17;;;;;;;499.73;210.02;;;;;;;;;;4967103;28;20104;-59
2023/04/20 13:43:43;;;;;;;579.22;207.10;;;;;;;;;;4965686;28;20075;-56